sensor_id;sensor_type;location;lat;lon;timestamp;P1;durP1;ratioP1;P2;durP2;ratioP2
23470;SDS011;11908;50.806;4.424;2022-07-10T00:00:38;3.33;;;1.58;;
23470;SDS011;11908;50.806;4.424;2022-07-10T00:03:04;10.27;;;2.20;;
23470;SDS011;11908;50.806;4.424;2022-07-10T00:05:30;5.40;;;1.60;;
23470;SDS011;11908;50.806;4.424;2022-07-10T00:07:57;5.70;;;2.22;;
23470;SDS011;11908;50.806;4.424;2022-07-10T00:10:23;6.75;;;2.05;;
23470;SDS011;11908;50.806;4.424;2022-07-10T00:12:51;6.70;;;1.80;;
23470;SDS011;11908;50.806;4.424;2022-07-10T00:15:17;6.10;;;2.08;;
23470;SDS011;11908;50.806;4.424;2022-07-10T00:17:43;6.13;;;2.20;;
23470;SDS011;11908;50.806;4.424;2022-07-10T00:20:10;3.85;;;1.80;;
23470;SDS011;11908;50.806;4.424;2022-07-10T00:22:36;6.93;;;2.00;;
23470;SDS011;11908;50.806;4.424;2022-07-10T00:25:03;7.32;;;2.30;;
23470;SDS011;11908;50.806;4.424;2022-07-10T00:27:30;5.55;;;2.13;;
23470;SDS011;11908;50.806;4.424;2022-07-10T00:29:56;8.38;;;2.47;;
23470;SDS011;11908;50.806;4.424;2022-07-10T00:32:22;5.47;;;2.20;;
23470;SDS011;11908;50.806;4.424;2022-07-10T00:34:48;6.55;;;2.00;;
23470;SDS011;11908;50.806;4.424;2022-07-10T00:37:13;4.90;;;2.22;;
23470;SDS011;11908;50.806;4.424;2022-07-10T00:39:39;6.40;;;1.80;;
23470;SDS011;11908;50.806;4.424;2022-07-10T00:47:04;5.05;;;2.22;;
23470;SDS011;11908;50.806;4.424;2022-07-10T00:49:34;4.97;;;2.22;;
23470;SDS011;11908;50.806;4.424;2022-07-10T00:52:02;5.32;;;2.00;;
23470;SDS011;11908;50.806;4.424;2022-07-10T00:54:30;8.98;;;2.55;;
23470;SDS011;11908;50.806;4.424;2022-07-10T00:56:57;6.15;;;2.22;;
23470;SDS011;11908;50.806;4.424;2022-07-10T00:59:23;8.05;;;2.15;;
23470;SDS011;11908;50.806;4.424;2022-07-10T01:01:50;5.65;;;2.38;;
23470;SDS011;11908;50.806;4.424;2022-07-10T01:04:16;6.68;;;2.10;;
23470;SDS011;11908;50.806;4.424;2022-07-10T01:06:42;7.20;;;2.83;;
23470;SDS011;11908;50.806;4.424;2022-07-10T01:09:08;5.82;;;2.38;;
23470;SDS011;11908;50.806;4.424;2022-07-10T01:11:34;8.05;;;2.70;;
23470;SDS011;11908;50.806;4.424;2022-07-10T01:14:01;6.82;;;2.13;;
23470;SDS011;11908;50.806;4.424;2022-07-10T01:16:27;3.22;;;2.13;;
23470;SDS011;11908;50.806;4.424;2022-07-10T01:18:54;3.88;;;2.10;;
23470;SDS011;11908;50.806;4.424;2022-07-10T01:21:24;4.97;;;2.53;;
23470;SDS011;11908;50.806;4.424;2022-07-10T01:23:50;6.43;;;2.10;;
23470;SDS011;11908;50.806;4.424;2022-07-10T01:26:16;6.70;;;2.80;;
23470;SDS011;11908;50.806;4.424;2022-07-10T01:28:42;6.18;;;2.17;;
23470;SDS011;11908;50.806;4.424;2022-07-10T01:31:08;8.13;;;2.40;;
23470;SDS011;11908;50.806;4.424;2022-07-10T01:33:34;7.03;;;2.35;;
23470;SDS011;11908;50.806;4.424;2022-07-10T01:35:59;5.68;;;2.30;;
23470;SDS011;11908;50.806;4.424;2022-07-10T01:38:25;7.75;;;2.83;;
23470;SDS011;11908;50.806;4.424;2022-07-10T01:40:51;4.13;;;2.10;;
23470;SDS011;11908;50.806;4.424;2022-07-10T01:43:16;6.53;;;2.33;;
23470;SDS011;11908;50.806;4.424;2022-07-10T01:45:42;6.70;;;2.30;;
23470;SDS011;11908;50.806;4.424;2022-07-10T01:48:09;4.95;;;2.00;;
23470;SDS011;11908;50.806;4.424;2022-07-10T01:50:35;4.40;;;2.80;;
23470;SDS011;11908;50.806;4.424;2022-07-10T01:53:00;5.32;;;2.17;;
23470;SDS011;11908;50.806;4.424;2022-07-10T01:55:26;6.63;;;2.70;;
23470;SDS011;11908;50.806;4.424;2022-07-10T01:57:52;5.20;;;2.25;;
23470;SDS011;11908;50.806;4.424;2022-07-10T02:00:17;11.68;;;2.50;;
23470;SDS011;11908;50.806;4.424;2022-07-10T02:02:43;6.65;;;2.85;;
23470;SDS011;11908;50.806;4.424;2022-07-10T02:05:28;6.68;;;2.50;;
23470;SDS011;11908;50.806;4.424;2022-07-10T02:07:54;4.47;;;2.22;;
23470;SDS011;11908;50.806;4.424;2022-07-10T02:10:20;7.00;;;2.35;;
23470;SDS011;11908;50.806;4.424;2022-07-10T02:12:45;4.43;;;2.40;;
23470;SDS011;11908;50.806;4.424;2022-07-10T02:15:11;8.40;;;2.55;;
23470;SDS011;11908;50.806;4.424;2022-07-10T02:17:37;3.83;;;2.42;;
23470;SDS011;11908;50.806;4.424;2022-07-10T02:20:02;6.80;;;2.50;;
23470;SDS011;11908;50.806;4.424;2022-07-10T02:22:29;7.60;;;3.05;;
23470;SDS011;11908;50.806;4.424;2022-07-10T02:24:54;6.57;;;2.65;;
23470;SDS011;11908;50.806;4.424;2022-07-10T02:27:20;3.42;;;2.22;;
23470;SDS011;11908;50.806;4.424;2022-07-10T02:29:47;5.50;;;2.78;;
23470;SDS011;11908;50.806;4.424;2022-07-10T02:32:13;4.80;;;2.40;;
23470;SDS011;11908;50.806;4.424;2022-07-10T02:34:38;4.68;;;2.80;;
23470;SDS011;11908;50.806;4.424;2022-07-10T02:37:04;6.30;;;2.47;;
23470;SDS011;11908;50.806;4.424;2022-07-10T02:39:30;5.05;;;2.40;;
23470;SDS011;11908;50.806;4.424;2022-07-10T02:41:55;5.82;;;2.70;;
23470;SDS011;11908;50.806;4.424;2022-07-10T02:44:21;4.97;;;2.58;;
23470;SDS011;11908;50.806;4.424;2022-07-10T02:46:46;7.25;;;2.88;;
23470;SDS011;11908;50.806;4.424;2022-07-10T02:49:12;8.27;;;2.78;;
23470;SDS011;11908;50.806;4.424;2022-07-10T02:51:38;3.30;;;2.22;;
23470;SDS011;11908;50.806;4.424;2022-07-10T02:54:03;7.93;;;2.75;;
23470;SDS011;11908;50.806;4.424;2022-07-10T02:56:29;4.80;;;2.85;;
23470;SDS011;11908;50.806;4.424;2022-07-10T02:58:55;5.35;;;2.55;;
23470;SDS011;11908;50.806;4.424;2022-07-10T03:01:20;5.75;;;2.63;;
23470;SDS011;11908;50.806;4.424;2022-07-10T03:03:46;6.90;;;3.10;;
23470;SDS011;11908;50.806;4.424;2022-07-10T03:06:12;8.40;;;2.58;;
23470;SDS011;11908;50.806;4.424;2022-07-10T03:08:37;4.40;;;2.88;;
23470;SDS011;11908;50.806;4.424;2022-07-10T03:11:03;5.03;;;2.80;;
23470;SDS011;11908;50.806;4.424;2022-07-10T03:13:29;6.50;;;2.88;;
23470;SDS011;11908;50.806;4.424;2022-07-10T03:15:54;4.63;;;2.55;;
23470;SDS011;11908;50.806;4.424;2022-07-10T03:18:20;4.63;;;2.75;;
23470;SDS011;11908;50.806;4.424;2022-07-10T03:20:46;7.40;;;2.60;;
23470;SDS011;11908;50.806;4.424;2022-07-10T03:23:11;7.03;;;2.80;;
23470;SDS011;11908;50.806;4.424;2022-07-10T03:25:37;5.40;;;2.72;;
23470;SDS011;11908;50.806;4.424;2022-07-10T03:28:03;7.40;;;2.85;;
23470;SDS011;11908;50.806;4.424;2022-07-10T03:30:28;4.57;;;2.78;;
23470;SDS011;11908;50.806;4.424;2022-07-10T03:32:54;4.55;;;2.80;;
23470;SDS011;11908;50.806;4.424;2022-07-10T03:35:20;7.95;;;2.88;;
23470;SDS011;11908;50.806;4.424;2022-07-10T03:37:45;5.22;;;2.72;;
23470;SDS011;11908;50.806;4.424;2022-07-10T03:40:11;8.60;;;3.10;;
23470;SDS011;11908;50.806;4.424;2022-07-10T03:42:37;5.72;;;2.67;;
23470;SDS011;11908;50.806;4.424;2022-07-10T03:45:03;5.28;;;3.10;;
23470;SDS011;11908;50.806;4.424;2022-07-10T03:47:28;8.02;;;2.78;;
23470;SDS011;11908;50.806;4.424;2022-07-10T03:49:54;6.63;;;2.90;;
23470;SDS011;11908;50.806;4.424;2022-07-10T03:52:20;5.47;;;2.72;;
23470;SDS011;11908;50.806;4.424;2022-07-10T03:54:46;7.05;;;2.55;;
23470;SDS011;11908;50.806;4.424;2022-07-10T03:57:11;7.13;;;2.85;;
23470;SDS011;11908;50.806;4.424;2022-07-10T03:59:55;4.25;;;2.70;;
23470;SDS011;11908;50.806;4.424;2022-07-10T04:02:21;5.72;;;2.88;;
23470;SDS011;11908;50.806;4.424;2022-07-10T04:04:47;15.60;;;5.60;;
23470;SDS011;11908;50.806;4.424;2022-07-10T04:07:12;4.53;;;2.78;;
23470;SDS011;11908;50.806;4.424;2022-07-10T04:09:38;9.68;;;3.08;;
23470;SDS011;11908;50.806;4.424;2022-07-10T04:12:04;5.80;;;2.67;;
23470;SDS011;11908;50.806;4.424;2022-07-10T04:14:30;6.68;;;2.90;;
23470;SDS011;11908;50.806;4.424;2022-07-10T04:16:56;6.53;;;2.70;;
23470;SDS011;11908;50.806;4.424;2022-07-10T04:19:21;8.23;;;2.78;;
23470;SDS011;11908;50.806;4.424;2022-07-10T04:21:47;4.88;;;2.50;;
23470;SDS011;11908;50.806;4.424;2022-07-10T04:24:12;4.65;;;2.60;;
23470;SDS011;11908;50.806;4.424;2022-07-10T04:26:38;4.55;;;2.60;;
23470;SDS011;11908;50.806;4.424;2022-07-10T04:29:04;7.47;;;2.95;;
23470;SDS011;11908;50.806;4.424;2022-07-10T04:31:29;3.88;;;2.47;;
23470;SDS011;11908;50.806;4.424;2022-07-10T04:33:55;3.65;;;1.92;;
23470;SDS011;11908;50.806;4.424;2022-07-10T04:36:22;5.05;;;1.60;;
23470;SDS011;11908;50.806;4.424;2022-07-10T04:38:48;4.35;;;2.10;;
23470;SDS011;11908;50.806;4.424;2022-07-10T04:41:14;7.88;;;1.88;;
23470;SDS011;11908;50.806;4.424;2022-07-10T04:43:39;3.70;;;1.55;;
23470;SDS011;11908;50.806;4.424;2022-07-10T04:46:05;4.30;;;1.60;;
23470;SDS011;11908;50.806;4.424;2022-07-10T04:48:32;2.60;;;1.25;;
23470;SDS011;11908;50.806;4.424;2022-07-10T04:50:57;2.83;;;1.25;;
23470;SDS011;11908;50.806;4.424;2022-07-10T04:53:23;3.50;;;1.50;;
23470;SDS011;11908;50.806;4.424;2022-07-10T04:55:49;2.53;;;1.52;;
23470;SDS011;11908;50.806;4.424;2022-07-10T04:58:15;3.10;;;1.10;;
23470;SDS011;11908;50.806;4.424;2022-07-10T05:00:40;2.22;;;1.27;;
23470;SDS011;11908;50.806;4.424;2022-07-10T05:03:06;3.50;;;1.27;;
23470;SDS011;11908;50.806;4.424;2022-07-10T05:05:32;2.92;;;1.20;;
23470;SDS011;11908;50.806;4.424;2022-07-10T05:07:57;4.03;;;1.20;;
23470;SDS011;11908;50.806;4.424;2022-07-10T05:10:24;3.00;;;1.27;;
23470;SDS011;11908;50.806;4.424;2022-07-10T05:12:49;3.20;;;1.50;;
23470;SDS011;11908;50.806;4.424;2022-07-10T05:15:15;3.67;;;1.20;;
23470;SDS011;11908;50.806;4.424;2022-07-10T05:17:40;2.40;;;1.02;;
23470;SDS011;11908;50.806;4.424;2022-07-10T05:20:06;4.22;;;1.60;;
23470;SDS011;11908;50.806;4.424;2022-07-10T05:22:32;2.85;;;1.30;;
23470;SDS011;11908;50.806;4.424;2022-07-10T05:24:58;2.58;;;1.15;;
23470;SDS011;11908;50.806;4.424;2022-07-10T05:27:23;2.30;;;1.25;;
23470;SDS011;11908;50.806;4.424;2022-07-10T05:29:50;3.70;;;1.38;;
23470;SDS011;11908;50.806;4.424;2022-07-10T05:32:16;3.65;;;1.40;;
23470;SDS011;11908;50.806;4.424;2022-07-10T05:34:41;3.75;;;1.15;;
23470;SDS011;11908;50.806;4.424;2022-07-10T05:37:07;3.50;;;1.45;;
23470;SDS011;11908;50.806;4.424;2022-07-10T05:39:33;2.40;;;1.02;;
23470;SDS011;11908;50.806;4.424;2022-07-10T05:41:58;3.30;;;1.30;;
23470;SDS011;11908;50.806;4.424;2022-07-10T05:44:24;3.80;;;1.02;;
23470;SDS011;11908;50.806;4.424;2022-07-10T05:46:50;4.15;;;1.13;;
23470;SDS011;11908;50.806;4.424;2022-07-10T05:49:15;7.47;;;1.90;;
23470;SDS011;11908;50.806;4.424;2022-07-10T05:51:41;3.47;;;1.10;;
23470;SDS011;11908;50.806;4.424;2022-07-10T05:54:07;8.32;;;1.27;;
23470;SDS011;11908;50.806;4.424;2022-07-10T05:56:33;3.47;;;1.10;;
23470;SDS011;11908;50.806;4.424;2022-07-10T05:58:59;2.65;;;1.20;;
23470;SDS011;11908;50.806;4.424;2022-07-10T06:01:25;4.00;;;1.30;;
23470;SDS011;11908;50.806;4.424;2022-07-10T06:03:53;5.35;;;1.52;;
23470;SDS011;11908;50.806;4.424;2022-07-10T06:06:19;4.22;;;1.35;;
23470;SDS011;11908;50.806;4.424;2022-07-10T06:08:45;7.50;;;1.60;;
23470;SDS011;11908;50.806;4.424;2022-07-10T06:11:11;4.40;;;1.50;;
23470;SDS011;11908;50.806;4.424;2022-07-10T06:13:37;3.75;;;1.42;;
23470;SDS011;11908;50.806;4.424;2022-07-10T06:16:04;2.90;;;1.60;;
23470;SDS011;11908;50.806;4.424;2022-07-10T06:18:30;5.03;;;1.75;;
23470;SDS011;11908;50.806;4.424;2022-07-10T06:20:58;5.13;;;1.55;;
23470;SDS011;11908;50.806;4.424;2022-07-10T06:23:24;6.32;;;1.65;;
23470;SDS011;11908;50.806;4.424;2022-07-10T06:25:50;5.57;;;1.70;;
23470;SDS011;11908;50.806;4.424;2022-07-10T06:28:16;6.53;;;1.83;;
23470;SDS011;11908;50.806;4.424;2022-07-10T06:30:42;4.88;;;1.60;;
23470;SDS011;11908;50.806;4.424;2022-07-10T06:33:08;7.15;;;1.73;;
23470;SDS011;11908;50.806;4.424;2022-07-10T06:35:34;7.63;;;2.17;;
23470;SDS011;11908;50.806;4.424;2022-07-10T06:38:00;4.93;;;1.42;;
23470;SDS011;11908;50.806;4.424;2022-07-10T06:40:26;10.15;;;1.80;;
23470;SDS011;11908;50.806;4.424;2022-07-10T06:42:54;5.85;;;1.70;;
23470;SDS011;11908;50.806;4.424;2022-07-10T06:45:19;3.60;;;1.38;;
23470;SDS011;11908;50.806;4.424;2022-07-10T06:47:45;7.13;;;1.70;;
23470;SDS011;11908;50.806;4.424;2022-07-10T06:50:26;7.20;;;1.75;;
23470;SDS011;11908;50.806;4.424;2022-07-10T06:52:55;5.78;;;1.48;;
23470;SDS011;11908;50.806;4.424;2022-07-10T06:55:21;6.93;;;1.65;;
23470;SDS011;11908;50.806;4.424;2022-07-10T06:57:48;4.43;;;1.60;;
23470;SDS011;11908;50.806;4.424;2022-07-10T07:00:14;5.70;;;1.63;;
23470;SDS011;11908;50.806;4.424;2022-07-10T07:02:40;8.85;;;1.52;;
23470;SDS011;11908;50.806;4.424;2022-07-10T07:05:06;3.83;;;1.33;;
23470;SDS011;11908;50.806;4.424;2022-07-10T07:07:33;6.55;;;1.60;;
23470;SDS011;11908;50.806;4.424;2022-07-10T07:09:59;5.13;;;1.13;;
23470;SDS011;11908;50.806;4.424;2022-07-10T07:12:24;5.00;;;1.95;;
23470;SDS011;11908;50.806;4.424;2022-07-10T07:14:50;6.15;;;1.40;;
23470;SDS011;11908;50.806;4.424;2022-07-10T07:17:16;5.85;;;1.30;;
23470;SDS011;11908;50.806;4.424;2022-07-10T07:19:49;7.03;;;1.65;;
23470;SDS011;11908;50.806;4.424;2022-07-10T07:22:33;6.10;;;1.42;;
23470;SDS011;11908;50.806;4.424;2022-07-10T07:25:18;3.95;;;1.08;;
23470;SDS011;11908;50.806;4.424;2022-07-10T07:27:43;7.10;;;1.30;;
23470;SDS011;11908;50.806;4.424;2022-07-10T07:30:10;2.47;;;0.90;;
23470;SDS011;11908;50.806;4.424;2022-07-10T07:32:39;5.53;;;1.65;;
23470;SDS011;11908;50.806;4.424;2022-07-10T07:35:06;5.93;;;1.20;;
23470;SDS011;11908;50.806;4.424;2022-07-10T07:37:42;6.93;;;1.27;;
23470;SDS011;11908;50.806;4.424;2022-07-10T07:40:13;5.75;;;1.40;;
23470;SDS011;11908;50.806;4.424;2022-07-10T07:42:48;3.88;;;1.25;;
23470;SDS011;11908;50.806;4.424;2022-07-10T07:45:15;6.53;;;1.73;;
23470;SDS011;11908;50.806;4.424;2022-07-10T07:50:10;5.00;;;1.25;;
23470;SDS011;11908;50.806;4.424;2022-07-10T07:52:36;4.47;;;1.50;;
23470;SDS011;11908;50.806;4.424;2022-07-10T07:55:02;3.08;;;1.30;;
23470;SDS011;11908;50.806;4.424;2022-07-10T07:57:28;4.32;;;1.23;;
23470;SDS011;11908;50.806;4.424;2022-07-10T07:59:53;3.78;;;1.20;;
23470;SDS011;11908;50.806;4.424;2022-07-10T08:02:19;8.00;;;1.70;;
23470;SDS011;11908;50.806;4.424;2022-07-10T08:04:49;2.60;;;1.02;;
23470;SDS011;11908;50.806;4.424;2022-07-10T08:07:14;6.68;;;1.02;;
23470;SDS011;11908;50.806;4.424;2022-07-10T08:09:40;4.60;;;1.05;;
23470;SDS011;11908;50.806;4.424;2022-07-10T08:12:06;4.22;;;1.08;;
23470;SDS011;11908;50.806;4.424;2022-07-10T08:14:32;6.63;;;1.30;;
23470;SDS011;11908;50.806;4.424;2022-07-10T08:16:57;9.20;;;1.25;;
23470;SDS011;11908;50.806;4.424;2022-07-10T08:19:23;4.53;;;1.10;;
23470;SDS011;11908;50.806;4.424;2022-07-10T08:21:51;4.60;;;1.30;;
23470;SDS011;11908;50.806;4.424;2022-07-10T08:24:17;6.65;;;1.35;;
23470;SDS011;11908;50.806;4.424;2022-07-10T08:26:43;4.10;;;1.30;;
23470;SDS011;11908;50.806;4.424;2022-07-10T08:29:09;3.35;;;1.00;;
23470;SDS011;11908;50.806;4.424;2022-07-10T08:31:35;2.85;;;1.10;;
23470;SDS011;11908;50.806;4.424;2022-07-10T08:34:00;5.45;;;1.45;;
23470;SDS011;11908;50.806;4.424;2022-07-10T08:36:26;5.20;;;1.48;;
23470;SDS011;11908;50.806;4.424;2022-07-10T08:38:52;3.22;;;1.00;;
23470;SDS011;11908;50.806;4.424;2022-07-10T08:41:24;6.03;;;1.60;;
23470;SDS011;11908;50.806;4.424;2022-07-10T08:43:51;3.45;;;1.30;;
23470;SDS011;11908;50.806;4.424;2022-07-10T08:46:17;3.53;;;1.17;;
23470;SDS011;11908;50.806;4.424;2022-07-10T08:48:46;3.88;;;1.33;;
23470;SDS011;11908;50.806;4.424;2022-07-10T08:51:15;3.80;;;1.05;;
23470;SDS011;11908;50.806;4.424;2022-07-10T08:53:55;4.47;;;1.17;;
23470;SDS011;11908;50.806;4.424;2022-07-10T08:56:22;4.10;;;1.20;;
23470;SDS011;11908;50.806;4.424;2022-07-10T08:58:49;4.35;;;1.23;;
23470;SDS011;11908;50.806;4.424;2022-07-10T09:01:17;4.10;;;1.20;;
23470;SDS011;11908;50.806;4.424;2022-07-10T09:03:48;4.20;;;1.30;;
23470;SDS011;11908;50.806;4.424;2022-07-10T09:06:15;3.03;;;0.88;;
23470;SDS011;11908;50.806;4.424;2022-07-10T09:08:45;4.00;;;1.20;;
23470;SDS011;11908;50.806;4.424;2022-07-10T09:11:24;3.97;;;1.20;;
23470;SDS011;11908;50.806;4.424;2022-07-10T09:13:54;4.03;;;1.15;;
23470;SDS011;11908;50.806;4.424;2022-07-10T09:16:28;6.07;;;1.40;;
23470;SDS011;11908;50.806;4.424;2022-07-10T09:21:48;4.32;;;1.10;;
23470;SDS011;11908;50.806;4.424;2022-07-10T09:24:16;5.10;;;1.52;;
23470;SDS011;11908;50.806;4.424;2022-07-10T09:29:25;4.13;;;1.50;;
23470;SDS011;11908;50.806;4.424;2022-07-10T09:32:00;3.72;;;1.42;;
23470;SDS011;11908;50.806;4.424;2022-07-10T09:34:40;3.83;;;1.20;;
23470;SDS011;11908;50.806;4.424;2022-07-10T09:39:57;6.85;;;1.15;;
23470;SDS011;11908;50.806;4.424;2022-07-10T09:47:44;2.53;;;1.05;;
23470;SDS011;11908;50.806;4.424;2022-07-10T09:50:27;4.25;;;1.20;;
23470;SDS011;11908;50.806;4.424;2022-07-10T09:53:00;5.80;;;1.33;;
23470;SDS011;11908;50.806;4.424;2022-07-10T09:55:32;4.82;;;1.13;;
23470;SDS011;11908;50.806;4.424;2022-07-10T09:58:00;4.80;;;1.40;;
23470;SDS011;11908;50.806;4.424;2022-07-10T10:00:34;4.97;;;1.70;;
23470;SDS011;11908;50.806;4.424;2022-07-10T10:03:00;3.13;;;0.95;;
23470;SDS011;11908;50.806;4.424;2022-07-10T10:05:44;6.07;;;1.38;;
23470;SDS011;11908;50.806;4.424;2022-07-10T10:08:17;4.93;;;1.63;;
23470;SDS011;11908;50.806;4.424;2022-07-10T10:10:48;3.88;;;1.42;;
23470;SDS011;11908;50.806;4.424;2022-07-10T10:13:22;7.13;;;1.30;;
23470;SDS011;11908;50.806;4.424;2022-07-10T10:15:52;5.97;;;1.50;;
23470;SDS011;11908;50.806;4.424;2022-07-10T10:18:22;7.00;;;1.50;;
23470;SDS011;11908;50.806;4.424;2022-07-10T10:20:49;3.67;;;1.20;;
23470;SDS011;11908;50.806;4.424;2022-07-10T10:23:21;3.75;;;1.58;;
23470;SDS011;11908;50.806;4.424;2022-07-10T10:25:52;2.00;;;1.10;;
23470;SDS011;11908;50.806;4.424;2022-07-10T10:28:22;1.90;;;1.10;;
23470;SDS011;11908;50.806;4.424;2022-07-10T10:30:50;4.30;;;1.30;;
23470;SDS011;11908;50.806;4.424;2022-07-10T10:36:00;2.53;;;1.38;;
23470;SDS011;11908;50.806;4.424;2022-07-10T10:39:09;3.65;;;1.35;;
23470;SDS011;11908;50.806;4.424;2022-07-10T10:41:23;3.83;;;1.60;;
23470;SDS011;11908;50.806;4.424;2022-07-10T10:47:15;5.13;;;1.42;;
23470;SDS011;11908;50.806;4.424;2022-07-10T10:49:27;6.97;;;1.50;;
23470;SDS011;11908;50.806;4.424;2022-07-10T10:52:14;4.78;;;1.60;;
23470;SDS011;11908;50.806;4.424;2022-07-10T10:57:23;4.38;;;1.88;;
23470;SDS011;11908;50.806;4.424;2022-07-10T10:59:52;3.50;;;1.60;;
23470;SDS011;11908;50.806;4.424;2022-07-10T11:04:48;4.25;;;1.90;;
23470;SDS011;11908;50.806;4.424;2022-07-10T11:07:36;4.00;;;1.65;;
23470;SDS011;11908;50.806;4.424;2022-07-10T11:10:26;3.47;;;1.60;;
23470;SDS011;11908;50.806;4.424;2022-07-10T11:12:57;5.20;;;1.75;;
23470;SDS011;11908;50.806;4.424;2022-07-10T11:15:36;3.70;;;2.00;;
23470;SDS011;11908;50.806;4.424;2022-07-10T11:18:08;4.38;;;1.60;;
23470;SDS011;11908;50.806;4.424;2022-07-10T11:20:39;3.10;;;1.70;;
23470;SDS011;11908;50.806;4.424;2022-07-10T11:28:42;4.45;;;1.88;;
23470;SDS011;11908;50.806;4.424;2022-07-10T11:31:15;4.45;;;2.22;;
23470;SDS011;11908;50.806;4.424;2022-07-10T11:33:41;7.03;;;1.83;;
23470;SDS011;11908;50.806;4.424;2022-07-10T11:36:09;2.42;;;1.52;;
23470;SDS011;11908;50.806;4.424;2022-07-10T11:38:38;3.97;;;1.85;;
23470;SDS011;11908;50.806;4.424;2022-07-10T11:41:12;3.25;;;1.65;;
23470;SDS011;11908;50.806;4.424;2022-07-10T11:43:51;5.00;;;1.63;;
23470;SDS011;11908;50.806;4.424;2022-07-10T11:46:19;3.95;;;1.52;;
23470;SDS011;11908;50.806;4.424;2022-07-10T11:48:46;4.00;;;1.80;;
23470;SDS011;11908;50.806;4.424;2022-07-10T11:51:22;3.53;;;1.55;;
23470;SDS011;11908;50.806;4.424;2022-07-10T11:56:38;4.00;;;1.70;;
23470;SDS011;11908;50.806;4.424;2022-07-10T11:59:12;3.50;;;1.73;;
23470;SDS011;11908;50.806;4.424;2022-07-10T12:01:42;4.68;;;1.90;;
23470;SDS011;11908;50.806;4.424;2022-07-10T12:04:09;3.22;;;1.50;;
23470;SDS011;11908;50.806;4.424;2022-07-10T12:06:39;4.20;;;1.50;;
23470;SDS011;11908;50.806;4.424;2022-07-10T12:09:07;6.32;;;1.85;;
23470;SDS011;11908;50.806;4.424;2022-07-10T12:11:38;5.13;;;2.45;;
23470;SDS011;11908;50.806;4.424;2022-07-10T12:14:18;2.65;;;1.50;;
23470;SDS011;11908;50.806;4.424;2022-07-10T12:16:46;4.05;;;1.70;;
23470;SDS011;11908;50.806;4.424;2022-07-10T12:19:16;2.42;;;1.30;;
23470;SDS011;11908;50.806;4.424;2022-07-10T12:21:44;4.80;;;1.83;;
23470;SDS011;11908;50.806;4.424;2022-07-10T12:24:12;3.08;;;1.48;;
23470;SDS011;11908;50.806;4.424;2022-07-10T12:26:40;3.15;;;1.60;;
23470;SDS011;11908;50.806;4.424;2022-07-10T12:29:11;3.20;;;1.40;;
23470;SDS011;11908;50.806;4.424;2022-07-10T12:31:43;4.28;;;1.60;;
23470;SDS011;11908;50.806;4.424;2022-07-10T12:34:10;4.93;;;1.77;;
23470;SDS011;11908;50.806;4.424;2022-07-10T12:36:43;2.50;;;1.40;;
23470;SDS011;11908;50.806;4.424;2022-07-10T12:39:09;5.50;;;1.90;;
23470;SDS011;11908;50.806;4.424;2022-07-10T12:41:52;6.07;;;1.55;;
23470;SDS011;11908;50.806;4.424;2022-07-10T12:44:38;5.28;;;1.60;;
23470;SDS011;11908;50.806;4.424;2022-07-10T12:47:09;3.67;;;1.38;;
23470;SDS011;11908;50.806;4.424;2022-07-10T12:49:49;4.68;;;1.40;;
23470;SDS011;11908;50.806;4.424;2022-07-10T12:52:23;3.83;;;1.55;;
23470;SDS011;11908;50.806;4.424;2022-07-10T12:55:05;3.63;;;1.50;;
23470;SDS011;11908;50.806;4.424;2022-07-10T12:57:59;2.22;;;1.30;;
23470;SDS011;11908;50.806;4.424;2022-07-10T13:00:32;3.65;;;1.50;;
23470;SDS011;11908;50.806;4.424;2022-07-10T13:03:06;3.15;;;1.38;;
23470;SDS011;11908;50.806;4.424;2022-07-10T13:08:20;3.13;;;1.35;;
23470;SDS011;11908;50.806;4.424;2022-07-10T13:10:52;5.13;;;1.23;;
23470;SDS011;11908;50.806;4.424;2022-07-10T13:13:18;4.13;;;1.30;;
23470;SDS011;11908;50.806;4.424;2022-07-10T13:15:45;7.82;;;1.67;;
23470;SDS011;11908;50.806;4.424;2022-07-10T13:23:16;2.17;;;1.10;;
23470;SDS011;11908;50.806;4.424;2022-07-10T13:25:44;2.38;;;1.20;;
23470;SDS011;11908;50.806;4.424;2022-07-10T13:28:10;4.40;;;1.80;;
23470;SDS011;11908;50.806;4.424;2022-07-10T13:30:38;11.60;;;1.65;;
23470;SDS011;11908;50.806;4.424;2022-07-10T13:33:04;3.83;;;1.27;;
23470;SDS011;11908;50.806;4.424;2022-07-10T13:35:33;7.80;;;1.50;;
23470;SDS011;11908;50.806;4.424;2022-07-10T13:37:59;2.35;;;1.05;;
23470;SDS011;11908;50.806;4.424;2022-07-10T13:40:27;3.92;;;1.40;;
23470;SDS011;11908;50.806;4.424;2022-07-10T13:42:53;4.30;;;0.80;;
23470;SDS011;11908;50.806;4.424;2022-07-10T13:45:18;3.47;;;1.17;;
23470;SDS011;11908;50.806;4.424;2022-07-10T13:47:45;1.67;;;0.90;;
23470;SDS011;11908;50.806;4.424;2022-07-10T13:50:10;5.82;;;1.10;;
23470;SDS011;11908;50.806;4.424;2022-07-10T13:52:36;3.15;;;1.08;;
23470;SDS011;11908;50.806;4.424;2022-07-10T13:55:02;3.30;;;1.33;;
23470;SDS011;11908;50.806;4.424;2022-07-10T13:57:29;5.13;;;1.00;;
23470;SDS011;11908;50.806;4.424;2022-07-10T13:59:55;4.03;;;1.20;;
23470;SDS011;11908;50.806;4.424;2022-07-10T14:02:21;5.93;;;0.95;;
23470;SDS011;11908;50.806;4.424;2022-07-10T14:04:46;3.38;;;1.08;;
23470;SDS011;11908;50.806;4.424;2022-07-10T14:07:12;2.33;;;0.90;;
23470;SDS011;11908;50.806;4.424;2022-07-10T14:09:38;4.88;;;1.40;;
23470;SDS011;11908;50.806;4.424;2022-07-10T14:12:03;2.53;;;1.00;;
23470;SDS011;11908;50.806;4.424;2022-07-10T14:14:30;2.67;;;1.35;;
23470;SDS011;11908;50.806;4.424;2022-07-10T14:16:56;3.03;;;1.08;;
23470;SDS011;11908;50.806;4.424;2022-07-10T14:19:22;2.50;;;1.00;;
23470;SDS011;11908;50.806;4.424;2022-07-10T14:21:48;3.10;;;1.00;;
23470;SDS011;11908;50.806;4.424;2022-07-10T14:24:14;1.10;;;0.80;;
23470;SDS011;11908;50.806;4.424;2022-07-10T14:26:39;4.57;;;1.17;;
23470;SDS011;11908;50.806;4.424;2022-07-10T14:29:05;4.47;;;1.35;;
23470;SDS011;11908;50.806;4.424;2022-07-10T14:31:31;2.70;;;1.30;;
23470;SDS011;11908;50.806;4.424;2022-07-10T14:33:57;3.60;;;1.10;;
23470;SDS011;11908;50.806;4.424;2022-07-10T14:36:23;2.95;;;1.23;;
23470;SDS011;11908;50.806;4.424;2022-07-10T14:38:52;3.65;;;1.20;;
23470;SDS011;11908;50.806;4.424;2022-07-10T14:41:18;1.73;;;1.08;;
23470;SDS011;11908;50.806;4.424;2022-07-10T14:43:44;2.80;;;1.10;;
23470;SDS011;11908;50.806;4.424;2022-07-10T14:46:10;3.00;;;1.50;;
23470;SDS011;11908;50.806;4.424;2022-07-10T14:48:36;4.70;;;1.20;;
23470;SDS011;11908;50.806;4.424;2022-07-10T14:51:02;3.25;;;1.08;;
23470;SDS011;11908;50.806;4.424;2022-07-10T14:53:28;4.50;;;0.88;;
23470;SDS011;11908;50.806;4.424;2022-07-10T14:55:54;1.50;;;0.90;;
23470;SDS011;11908;50.806;4.424;2022-07-10T14:58:20;3.53;;;1.58;;
23470;SDS011;11908;50.806;4.424;2022-07-10T15:00:46;3.05;;;1.20;;
23470;SDS011;11908;50.806;4.424;2022-07-10T15:03:11;2.85;;;1.20;;
23470;SDS011;11908;50.806;4.424;2022-07-10T15:05:37;4.97;;;1.00;;
23470;SDS011;11908;50.806;4.424;2022-07-10T15:08:03;5.72;;;1.00;;
23470;SDS011;11908;50.806;4.424;2022-07-10T15:10:29;1.40;;;1.05;;
23470;SDS011;11908;50.806;4.424;2022-07-10T15:12:58;0.98;;;0.80;;
23470;SDS011;11908;50.806;4.424;2022-07-10T15:15:24;2.80;;;1.00;;
23470;SDS011;11908;50.806;4.424;2022-07-10T15:17:50;3.22;;;1.50;;
23470;SDS011;11908;50.806;4.424;2022-07-10T15:20:16;4.47;;;1.13;;
23470;SDS011;11908;50.806;4.424;2022-07-10T15:22:44;2.70;;;0.90;;
23470;SDS011;11908;50.806;4.424;2022-07-10T15:25:10;2.83;;;1.20;;
23470;SDS011;11908;50.806;4.424;2022-07-10T15:27:35;2.05;;;1.05;;
23470;SDS011;11908;50.806;4.424;2022-07-10T15:30:01;2.30;;;1.00;;
23470;SDS011;11908;50.806;4.424;2022-07-10T15:32:29;4.70;;;1.20;;
23470;SDS011;11908;50.806;4.424;2022-07-10T15:34:54;2.55;;;1.20;;
23470;SDS011;11908;50.806;4.424;2022-07-10T15:37:20;2.85;;;1.10;;
23470;SDS011;11908;50.806;4.424;2022-07-10T15:39:47;4.03;;;0.93;;